Arecibo, PR PRSN current weather conditions

sailwx.info

Wind from 131 at 4 knots gusting 5

Water temperature 28.3° C

Last reported at 2019-Aug-21 09:48 UTC.
Time now 2019-Aug-21 11:13 UTC

Location: N 18°29' W 066°42'.
View on Google Maps.

See reports from other nearby stations

  
Tides and Currents Weather Stations Pressure Air Temp Water Temp Dewpoint Dewpoint Depression Visibility Wind Speed Wind Dir Waves Ship Positions
date/time (UTC)wind fromknots sea level pressurealtimeterstation pressurevisibilityair tempwater tempwave heightnotes
2019-Aug-21 09:48 131 4 gusting 5 28.3
2019-Aug-21 09:42 131 5 gusting 6 28.3
2019-Aug-21 09:36 133 4 gusting 6 28.3
2019-Aug-21 09:30 130 4 gusting 5 28.3
2019-Aug-21 09:24 131 5 gusting 6 27.8
2019-Aug-21 09:18 134 5 gusting 6 27.8
2019-Aug-21 09:12 139 5 gusting 5 28.3
2019-Aug-21 09:06 143 3 gusting 4 28.3
2019-Aug-21 09:00 145 3 gusting 4 28.3
2019-Aug-21 08:54 146 3 gusting 5 28.3
2019-Aug-21 08:48 145 3 gusting 4 28.3
2019-Aug-21 08:42 151 3 gusting 5 28.3
2019-Aug-21 08:36 154 3 gusting 3 28.3
2019-Aug-21 08:30 154 4 gusting 5 28.3
2019-Aug-21 08:24 152 4 gusting 5 28.9
2019-Aug-21 08:18 154 5 gusting 6 28.9
2019-Aug-21 08:12 156 4 gusting 5 28.9
2019-Aug-21 08:06 154 4 gusting 5 28.9
2019-Aug-21 08:00 152 3 gusting 5 28.9
2019-Aug-21 07:54 152 2 gusting 3 28.9
2019-Aug-21 07:48 148 4 gusting 4 28.9
2019-Aug-21 07:42 141 3 gusting 4 28.9
2019-Aug-21 07:36 149 3 gusting 4 28.9
2019-Aug-21 07:30 140 4 gusting 4 28.9
2019-Aug-21 07:24 137 4 gusting 5 28.9
2019-Aug-21 07:18 137 4 gusting 5 28.9
2019-Aug-21 07:12 137 4 gusting 5 28.9
2019-Aug-21 07:06 138 3 gusting 4 28.9
2019-Aug-21 07:00 137 3 gusting 3 28.9
2019-Aug-21 06:54 138 3 gusting 3 28.3
2019-Aug-21 06:48 138 2 gusting 2 28.9
2019-Aug-21 06:42 138 2 gusting 2 28.9
2019-Aug-21 06:36 138 2 gusting 3 28.9
2019-Aug-21 06:30 138 2 gusting 3 28.9
2019-Aug-21 06:24 141 3 gusting 4 28.9
2019-Aug-21 06:18 146 2 gusting 3 28.9
2019-Aug-21 06:12 151 3 gusting 4 28.9
2019-Aug-21 06:06 146 4 gusting 5 28.9
2019-Aug-21 06:00 150 3 gusting 4 28.9
2019-Aug-21 05:54 153 4 gusting 5 28.9
2019-Aug-21 05:48 155 3 gusting 3 28.9
2019-Aug-21 05:42 157 2 gusting 3 28.9
2019-Aug-21 05:36 151 2 gusting 3 28.9
2019-Aug-21 05:30 152 2 gusting 3 28.9
2019-Aug-21 05:24 152 5 gusting 6 28.9
2019-Aug-21 05:18 158 5 gusting 6 28.9
2019-Aug-21 05:12 158 5 gusting 6 28.9
2019-Aug-21 05:06 153 3 gusting 5 28.9
2019-Aug-21 05:00 159 4 gusting 5 28.9
2019-Aug-21 04:54 156 3 gusting 4 28.9
2019-Aug-21 04:48 152 1 gusting 3 28.9
2019-Aug-21 04:42 151 28.9
2019-Aug-21 04:36 147 2 gusting 2 28.9
2019-Aug-21 04:30 148 2 gusting 3 28.9
2019-Aug-21 04:24 149 3 gusting 4 28.9
2019-Aug-21 04:18 152 4 gusting 5 28.9
2019-Aug-21 04:12 152 3 gusting 4 28.9
2019-Aug-21 04:06 149 3 gusting 3 28.9
2019-Aug-21 04:00 142 3 gusting 4 28.9
2019-Aug-21 03:54 149 3 gusting 4 28.9
2019-Aug-21 03:48 159 4 gusting 4 28.9
2019-Aug-21 03:42 157 5 gusting 6 28.9
2019-Aug-21 03:36 150 4 gusting 4 28.9
2019-Aug-21 03:30 145 3 gusting 4 28.9
2019-Aug-21 03:24 142 3 gusting 4 28.9
2019-Aug-21 03:18 153 4 gusting 4 28.9
2019-Aug-21 03:12 154 4 gusting 4 28.9
2019-Aug-21 03:06 141 3 gusting 4 28.9
2019-Aug-21 03:00 139 3 gusting 4 28.9
2019-Aug-21 02:54 140 3 gusting 4 28.9
2019-Aug-21 02:48 140 3 gusting 4 28.9
2019-Aug-21 02:42 140 3 gusting 4 28.9
2019-Aug-21 02:36 140 3 gusting 4 28.9
2019-Aug-21 02:30 140 2 gusting 3 28.9
2019-Aug-21 02:24 140 3 gusting 4 28.9
2019-Aug-21 02:18 139 4 gusting 5 28.9
2019-Aug-21 02:12 135 3 gusting 5 28.9
2019-Aug-21 02:06 133 3 gusting 4 28.9
2019-Aug-21 02:00 131 3 gusting 5 28.9
2019-Aug-21 01:54 127 3 gusting 6 28.9
2019-Aug-21 01:48 128 4 gusting 5 28.9
2019-Aug-21 01:42 128 3 gusting 3 28.9
2019-Aug-21 01:36 128 3 gusting 4 28.9
2019-Aug-21 01:30 128 2 gusting 3 28.9
2019-Aug-21 01:24 127 2 gusting 3 28.9
2019-Aug-21 01:18 127 28.9
2019-Aug-21 01:12 127 28.9
2019-Aug-21 01:06 127 28.9
2019-Aug-21 01:00 127 29.4
2019-Aug-21 00:54 127 2 gusting 3 29.4
2019-Aug-21 00:48 127 3 gusting 3 29.4
2019-Aug-21 00:42 127 3 gusting 3 29.4
2019-Aug-21 00:36 127 29.4
2019-Aug-21 00:30 124 3 gusting 5 29.4
2019-Aug-21 00:24 129 3 gusting 5 28.9
2019-Aug-21 00:18 129 3 gusting 4 28.9
2019-Aug-21 00:12 129 3 gusting 4 28.9
2019-Aug-21 00:06 129 28.9
2019-Aug-21 00:00 129 2 gusting 3 28.9
2019-Aug-20 23:42 103 5 gusting 6 29.4
2019-Aug-20 23:36 096 5 gusting 7 29.4
2019-Aug-20 23:30 087 4 gusting 9 29.4
2019-Aug-20 23:24 078 4 gusting 9 29.4
2019-Aug-20 23:18 080 4 gusting 10 29.4
2019-Aug-20 23:12 071 7 gusting 13 29.4
2019-Aug-20 23:06 068 6 gusting 13 29.4
2019-Aug-20 23:00 079 5 gusting 11 29.4
2019-Aug-20 22:54 066 5 gusting 9 29.4
2019-Aug-20 22:48 077 8 gusting 14 29.4
2019-Aug-20 22:42 075 6 gusting 12 29.4
2019-Aug-20 22:36 077 8 gusting 14 29.4
2019-Aug-20 22:30 081 6 gusting 11 29.4
2019-Aug-20 22:24 077 4 gusting 10 29.4
2019-Aug-20 22:18 073 6 gusting 13 29.4
2019-Aug-20 22:12 075 9 gusting 13 29.4
2019-Aug-20 22:06 077 6 gusting 9 29.4
2019-Aug-20 22:00 123 1 gusting 6 29.4
2019-Aug-20 21:54 145 2 gusting 5 29.4
2019-Aug-20 21:48 250 0 gusting 2 29.4
2019-Aug-20 21:42 251 29.4
2019-Aug-20 21:36 251 29.4
2019-Aug-20 21:30 251 29.4
2019-Aug-20 21:24 250 29.4
2019-Aug-20 21:18 250 29.4
2019-Aug-20 21:12 250 29.4
2019-Aug-20 21:06 250 0 gusting 1 29.4
2019-Aug-20 21:00 251 29.4
2019-Aug-20 20:54 251 29.4
2019-Aug-20 20:48 251 29.4
2019-Aug-20 20:42 253 29.4
2019-Aug-20 20:36 254 29.4
2019-Aug-20 20:30 255 29.4
2019-Aug-20 20:24 257 29.4
2019-Aug-20 20:18 272 1 gusting 2 29.4
2019-Aug-20 20:12 259 29.4
2019-Aug-20 20:06 254 4 gusting 5 29.4
2019-Aug-20 20:00 264 5 gusting 6 29.4
2019-Aug-20 19:54 236 5 gusting 6 29.4
2019-Aug-20 19:48 211 6 gusting 7 29.4
2019-Aug-20 19:42 209 7 gusting 8 29.4
2019-Aug-20 19:36 229 8 gusting 10 29.4
2019-Aug-20 19:30 229 9 gusting 11 29.4
2019-Aug-20 19:24 199 9 gusting 11 29.4
2019-Aug-20 19:18 211 14 gusting 19 29.4
2019-Aug-20 19:12 096 11 gusting 15 29.4
2019-Aug-20 19:06 068 9 gusting 16 29.4
2019-Aug-20 19:00 055 11 gusting 16 29.4
2019-Aug-20 18:54 055 11 gusting 15 29.4
2019-Aug-20 18:48 053 13 gusting 16 29.4
2019-Aug-20 18:42 051 13 gusting 19 29.4
2019-Aug-20 18:36 053 11 gusting 16 29.4
2019-Aug-20 18:30 059 7 gusting 13 29.4
2019-Aug-20 18:24 061 7 gusting 16 29.4
2019-Aug-20 18:18 062 8 gusting 13 29.4
2019-Aug-20 18:12 062 9 gusting 18 29.4
2019-Aug-20 18:06 057 11 gusting 17 29.4
2019-Aug-20 18:00 058 12 gusting 18 29.4
2019-Aug-20 17:54 067 11 gusting 17 29.4
2019-Aug-20 17:48 062 9 gusting 16 29.4
2019-Aug-20 17:42 057 11 gusting 16 29.4
2019-Aug-20 17:36 058 10 gusting 16 29.4
2019-Aug-20 17:30 054 11 gusting 19 29.4
2019-Aug-20 17:24 052 13 gusting 20 29.4
2019-Aug-20 17:18 056 12 gusting 18 29.4
2019-Aug-20 17:12 057 11 gusting 19 29.4
2019-Aug-20 17:06 052 12 gusting 19 29.4
2019-Aug-20 17:00 050 13 gusting 17 29.4
2019-Aug-20 16:54 052 13 gusting 19 29.4
2019-Aug-20 16:48 051 13 gusting 19 29.4
2019-Aug-20 16:42 052 13 gusting 18 29.4
2019-Aug-20 16:36 051 14 gusting 20 29.4
2019-Aug-20 16:30 052 12 gusting 19 29.4
2019-Aug-20 16:24 049 13 gusting 17 29.4
2019-Aug-20 16:18 048 13 gusting 18 29.4
2019-Aug-20 16:12 058 7 gusting 12 29.4
2019-Aug-20 16:06 050 11 gusting 17 29.4
2019-Aug-20 16:00 051 12 gusting 18 29.4
2019-Aug-20 15:54 052 13 gusting 16 29.4
2019-Aug-20 15:48 051 11 gusting 15 29.4
2019-Aug-20 15:42 050 11 gusting 15 29.4
2019-Aug-20 15:36 049 11 gusting 15 29.4
2019-Aug-20 15:30 050 10 gusting 15 29.4
2019-Aug-20 15:24 049 9 gusting 16 29.4
2019-Aug-20 15:18 050 10 gusting 17 29.4
2019-Aug-20 15:12 051 10 gusting 14 28.9
2019-Aug-20 15:06 048 9 gusting 15 28.9
2019-Aug-20 15:00 048 8 gusting 14 28.9
2019-Aug-20 14:54 049 10 gusting 15 28.9
2019-Aug-20 14:48 049 9 gusting 13 28.9
2019-Aug-20 14:42 044 9 gusting 13 28.9
2019-Aug-20 14:36 044 7 gusting 12 28.9
2019-Aug-20 14:30 047 8 gusting 13 28.9
2019-Aug-20 14:24 052 9 gusting 13 28.9
2019-Aug-20 14:18 048 8 gusting 12 28.9
2019-Aug-20 14:12 051 9 gusting 13 28.9
2019-Aug-20 14:06 052 8 gusting 12 28.9
2019-Aug-20 14:00 049 7 gusting 11 28.9
2019-Aug-20 13:54 053 6 gusting 10 28.9
2019-Aug-20 13:48 053 8 gusting 12 28.9
2019-Aug-20 13:42 046 5 gusting 8 28.9
2019-Aug-20 13:36 042 6 gusting 8 28.9
2019-Aug-20 13:30 046 6 gusting 10 28.9
2019-Aug-20 13:24 048 6 gusting 7 28.9
2019-Aug-20 13:18 075 4 gusting 9 28.9
2019-Aug-20 13:12 086 7 gusting 10 28.9
2019-Aug-20 13:06 096 6 gusting 9 28.9
2019-Aug-20 13:00 102 5 gusting 8 28.9
2019-Aug-20 12:54 132 1 gusting 5 28.9
2019-Aug-20 12:48 133 1 gusting 4 28.9
2019-Aug-20 12:42 139 1 gusting 3 28.9
2019-Aug-20 12:36 141 28.9
2019-Aug-20 12:30 141 28.9
2019-Aug-20 12:24 141 28.9
2019-Aug-20 12:18 141 28.9
2019-Aug-20 12:12 142 28.9
2019-Aug-20 12:06 144 0 gusting 1 28.3
2019-Aug-20 12:00 151 1 gusting 3 28.3
2019-Aug-20 11:54 145 1 gusting 3 28.3
2019-Aug-20 11:48 153 2 gusting 3 28.3
2019-Aug-20 11:42 152 3 gusting 5 28.9
2019-Aug-20 11:36 162 3 gusting 4 28.3
2019-Aug-20 11:30 148 1 gusting 3 28.9
2019-Aug-20 11:24 146 2 gusting 3 28.9
2019-Aug-20 11:18 151 0 gusting 3 28.9
2019-Aug-20 11:12 161 3 gusting 3 28.9
2019-Aug-20 11:06 161 3 gusting 4 28.9
2019-Aug-20 11:00 155 2 gusting 4 28.9
2019-Aug-20 10:54 158 3 gusting 4 28.9
2019-Aug-20 10:48 164 3 gusting 5 28.9
2019-Aug-20 10:42 156 4 gusting 5 28.9
2019-Aug-20 10:36 162 5 gusting 6 28.3
2019-Aug-20 10:30 159 5 gusting 6 28.3
2019-Aug-20 10:24 160 5 gusting 6 28.9
2019-Aug-20 10:18 163 5 gusting 6 28.3
2019-Aug-20 10:12 159 6 gusting 6 28.9
2019-Aug-20 10:06 157 6 gusting 7 28.9
2019-Aug-20 10:00 154 5 gusting 6 28.3
2019-Aug-20 09:54 155 5 gusting 6 28.3
2019-Aug-20 09:48 154 5 gusting 6 28.3
2019-Aug-20 09:42 153 4 gusting 5 28.3
2019-Aug-20 09:36 150 5 gusting 6 28.3
2019-Aug-20 09:30 150 4 gusting 6 28.3
2019-Aug-20 09:24 149 3 gusting 4 28.9
2019-Aug-20 09:18 149 3 gusting 5 28.9
2019-Aug-20 09:12 148 3 gusting 5 28.3
2019-Aug-20 09:06 148 4 gusting 5 28.3
2019-Aug-20 09:00 148 5 gusting 6 28.3
2019-Aug-20 08:54 148 5 gusting 6 28.3
2019-Aug-20 08:48 148 4 gusting 6 28.3
2019-Aug-20 08:42 148 5 gusting 6 28.9
2019-Aug-20 08:36 147 4 gusting 6 28.9
2019-Aug-20 08:30 147 3 gusting 5 28.9
2019-Aug-20 08:24 147 3 gusting 4 28.9
2019-Aug-20 08:18 147 3 gusting 4 28.9
2019-Aug-20 08:12 147 4 gusting 5 28.9
2019-Aug-20 08:06 147 5 gusting 5 28.9
2019-Aug-20 08:00 147 5 gusting 5 28.9
2019-Aug-20 07:54 147 3 gusting 5 28.9
2019-Aug-20 07:48 147 4 gusting 5 28.9
2019-Aug-20 07:42 146 5 gusting 5 28.9
2019-Aug-20 07:36 146 2 gusting 3 28.9
2019-Aug-20 07:30 147 3 gusting 3 28.9
2019-Aug-20 07:24 146 4 gusting 6 28.9
2019-Aug-20 07:18 146 5 gusting 6 28.9
2019-Aug-20 07:12 145 3 gusting 4 28.9
2019-Aug-20 07:06 145 3 gusting 4 28.9
2019-Aug-20 07:00 145 3 gusting 4 28.9
2019-Aug-20 06:54 144 3 gusting 3 28.9
2019-Aug-20 06:48 144 3 gusting 4 28.9
2019-Aug-20 06:42 144 3 gusting 4 28.9
2019-Aug-20 06:36 144 4 gusting 5 28.9
2019-Aug-20 06:30 143 2 gusting 4 28.9
2019-Aug-20 06:24 143 2 gusting 3 28.9
2019-Aug-20 06:18 144 3 gusting 4 28.9
2019-Aug-20 06:12 143 1 gusting 3 28.9
2019-Aug-20 06:06 142 3 gusting 4 28.9
2019-Aug-20 06:00 140 3 gusting 5 28.9
2019-Aug-20 05:54 142 5 gusting 6 28.9
2019-Aug-20 05:48 142 4 gusting 5 28.9
2019-Aug-20 05:42 142 5 gusting 6 28.9
2019-Aug-20 05:36 142 4 gusting 5 28.9
2019-Aug-20 05:30 142 4 gusting 4 28.9
2019-Aug-20 05:24 142 3 gusting 5 28.9
2019-Aug-20 05:18 142 3 gusting 4 28.9
2019-Aug-20 05:12 141 3 gusting 4 28.9
2019-Aug-20 05:06 142 3 gusting 4 28.9
2019-Aug-20 05:00 142 4 gusting 6 28.9
2019-Aug-20 04:54 141 3 gusting 5 28.9
2019-Aug-20 04:48 141 4 gusting 5 28.9
2019-Aug-20 04:42 141 3 gusting 5 28.9
2019-Aug-20 04:36 141 3 gusting 4 28.9
2019-Aug-20 04:30 139 3 gusting 5 28.9
2019-Aug-20 04:24 138 1 gusting 3 28.9
2019-Aug-20 04:18 137 28.9
2019-Aug-20 04:12 138 1 gusting 2 28.9
2019-Aug-20 04:06 138 2 gusting 3 28.3
2019-Aug-20 04:00 137 28.9
2019-Aug-20 03:54 137 28.9
2019-Aug-20 03:48 137 28.9
2019-Aug-20 03:42 127 28.9
2019-Aug-20 03:36 131 28.9
2019-Aug-20 03:30 136 28.9
2019-Aug-20 03:24 125 28.9
2019-Aug-20 03:18 137 28.9
2019-Aug-20 03:12 137 1 gusting 2 28.9
2019-Aug-20 03:06 128 3 gusting 4 28.9
2019-Aug-20 03:00 129 0 gusting 2 28.9
2019-Aug-20 02:54 133 3 gusting 3 28.9
2019-Aug-20 02:48 120 2 gusting 3 28.9
2019-Aug-20 02:42 130 4 gusting 5 28.9
2019-Aug-20 02:36 125 3 gusting 4 28.9
2019-Aug-20 02:30 134 28.9
2019-Aug-20 02:24 133 28.9
2019-Aug-20 02:18 133 28.9
2019-Aug-20 02:12 131 28.9
2019-Aug-20 02:06 122 28.9
2019-Aug-20 02:00 132 28.9
2019-Aug-20 01:54 131 28.9
2019-Aug-20 01:48 123 1 gusting 2 28.9
2019-Aug-20 01:42 128 3 gusting 3 28.9
2019-Aug-20 01:36 133 28.9
2019-Aug-20 01:30 135 28.9
2019-Aug-20 01:24 136 28.9
2019-Aug-20 01:18 136 28.9
2019-Aug-20 01:12 136 28.9
2019-Aug-20 01:06 135 28.9
2019-Aug-20 01:00 135 28.9
2019-Aug-20 00:54 132 28.9
2019-Aug-20 00:48 116 1 gusting 3 28.9
2019-Aug-20 00:42 122 28.9
2019-Aug-20 00:36 129 28.9
2019-Aug-20 00:30 136 0 gusting 2 28.9
2019-Aug-20 00:24 134 28.9
2019-Aug-20 00:18 131 3 gusting 4 28.9
2019-Aug-20 00:12 131 3 gusting 4 28.9
2019-Aug-20 00:06 123 3 gusting 4 28.9
2019-Aug-20 00:00 123 3 gusting 5 28.9
2019-Aug-19 23:42 121 6 gusting 7 28.9
2019-Aug-19 23:36 120 5 gusting 6 28.9
2019-Aug-19 23:30 116 3 gusting 7 28.9
2019-Aug-19 23:24 114 5 gusting 7 28.9
2019-Aug-19 23:18 118 4 gusting 6 28.9
2019-Aug-19 23:12 118 3 gusting 6 28.9
2019-Aug-19 23:06 118 5 gusting 6 28.9
2019-Aug-19 23:00 109 5 gusting 6 28.9
2019-Aug-19 22:54 112 5 gusting 6 28.9
2019-Aug-19 22:48 115 5 gusting 7 28.9
2019-Aug-19 22:42 113 5 gusting 7 28.9
2019-Aug-19 22:36 113 5 gusting 6 28.9
2019-Aug-19 22:30 115 4 gusting 6 28.9
2019-Aug-19 22:24 119 3 gusting 6 28.9
2019-Aug-19 22:18 121 3 gusting 4 28.3
2019-Aug-19 22:12 122 2 gusting 3 28.3
2019-Aug-19 22:06 123 28.3
2019-Aug-19 22:00 141 28.3
2019-Aug-19 21:54 143 28.3
2019-Aug-19 21:48 143 1 gusting 2 28.9
2019-Aug-19 21:42 143 2 gusting 3 28.9
2019-Aug-19 21:36 142 28.9
2019-Aug-19 21:30 142 0 gusting 1 28.9
2019-Aug-19 21:24 129 28.9
2019-Aug-19 21:18 129 28.9
2019-Aug-19 21:12 124 28.9
2019-Aug-19 21:06 124 28.9
2019-Aug-19 21:00 124 28.9
2019-Aug-19 20:54 124 28.9
2019-Aug-19 20:48 125 28.9
2019-Aug-19 20:42 125 28.9
2019-Aug-19 20:36 125 28.9
2019-Aug-19 20:30 133 2 gusting 3 28.3
2019-Aug-19 20:24 137 2 gusting 3 28.3
2019-Aug-19 20:18 133 28.3
2019-Aug-19 20:12 131 1 gusting 3 28.3
2019-Aug-19 20:06 135 4 gusting 5 28.9
2019-Aug-19 20:00 145 4 gusting 6 28.9
2019-Aug-19 19:54 142 4 gusting 5 28.9
2019-Aug-19 19:42 138 2 gusting 4 28.9
2019-Aug-19 19:36 130 2 gusting 3 28.9
2019-Aug-19 19:30 134 3 gusting 5 28.3
2019-Aug-19 19:24 140 3 gusting 4 28.3
2019-Aug-19 19:18 136 0 gusting 3 28.3
2019-Aug-19 19:12 152 4 gusting 5 28.3
2019-Aug-19 19:06 154 5 gusting 6 28.3
2019-Aug-19 19:00 149 5 gusting 6 28.3
2019-Aug-19 18:54 147 6 gusting 7 28.3
2019-Aug-19 18:48 148 4 gusting 6 28.3
2019-Aug-19 18:42 142 6 gusting 7 28.3
2019-Aug-19 18:36 139 3 gusting 5 28.3
2019-Aug-19 18:30 145 5 gusting 6 28.3
2019-Aug-19 18:24 158 6 gusting 7 28.9
2019-Aug-19 18:18 190 6 gusting 6 28.9
2019-Aug-19 18:12 194 3 gusting 5 28.9
2019-Aug-19 18:06 244 3 gusting 6 28.9
2019-Aug-19 18:00 244 6 gusting 7 28.9
2019-Aug-19 17:54 276 6 gusting 6 28.9
2019-Aug-19 17:48 280 4 gusting 5 28.9
2019-Aug-19 17:42 294 4 gusting 6 28.9
2019-Aug-19 17:36 304 7 gusting 8 28.9
2019-Aug-19 17:30 258 6 gusting 7 28.9
2019-Aug-19 17:24 276 7 gusting 8 28.9
2019-Aug-19 17:18 289 8 gusting 9 28.9
2019-Aug-19 17:12 287 11 gusting 13 28.9
2019-Aug-19 17:06 284 11 gusting 13 28.9
2019-Aug-19 17:00 283 5 gusting 6 29.4
2019-Aug-19 16:54 289 7 gusting 11 29.4
2019-Aug-19 16:48 299 13 gusting 16 29.4
2019-Aug-19 16:42 286 13 gusting 16 29.4
2019-Aug-19 16:36 269 13 gusting 14 29.4
2019-Aug-19 16:30 276 15 gusting 18 29.4
2019-Aug-19 16:24 264 8 gusting 12 29.4
2019-Aug-19 16:18 172 5 gusting 8 29.4
2019-Aug-19 16:12 203 12 gusting 14 28.9
2019-Aug-19 16:06 200 13 gusting 17 28.9
2019-Aug-19 16:00 178 6 gusting 9 28.9
2019-Aug-19 15:54 055 7 gusting 12 28.9
2019-Aug-19 15:48 045 8 gusting 13 29.4
2019-Aug-19 15:42 044 9 gusting 13 29.4
2019-Aug-19 15:36 042 6 gusting 11 29.4
2019-Aug-19 15:30 045 11 gusting 14 28.9
2019-Aug-19 15:24 046 9 gusting 14 28.9
2019-Aug-19 15:18 044 9 gusting 13 28.9
2019-Aug-19 15:12 042 8 gusting 13 28.9
2019-Aug-19 15:06 043 6 gusting 13 28.9
2019-Aug-19 15:00 041 10 gusting 15 28.9
2019-Aug-19 14:54 041 8 gusting 13 28.9
2019-Aug-19 14:48 045 10 gusting 14 28.9
2019-Aug-19 14:42 046 11 gusting 16 28.9
2019-Aug-19 14:36 046 10 gusting 14 28.9
2019-Aug-19 14:30 042 10 gusting 16 28.9
2019-Aug-19 14:24 045 10 gusting 14 28.9
2019-Aug-19 14:18 041 9 gusting 13 28.9
2019-Aug-19 14:12 045 8 gusting 11 28.9
2019-Aug-19 14:06 045 9 gusting 13 28.9
2019-Aug-19 14:00 044 10 gusting 13 28.9
2019-Aug-19 13:54 050 8 gusting 15 28.9
2019-Aug-19 13:48 060 6 gusting 13 28.9
2019-Aug-19 13:42 054 6 gusting 12 28.9
2019-Aug-19 13:36 060 7 gusting 13 28.9
2019-Aug-19 13:30 051 7 gusting 14 28.9
2019-Aug-19 13:24 052 6 gusting 13 28.9
2019-Aug-19 13:18 062 6 gusting 11 28.9
2019-Aug-19 13:12 054 6 gusting 11 28.9
2019-Aug-19 13:06 057 6 gusting 12 28.9
2019-Aug-19 13:00 050 7 gusting 13 28.9
2019-Aug-19 12:54 064 6 gusting 10 28.9
2019-Aug-19 12:48 068 5 gusting 7 28.9
2019-Aug-19 12:42 082 6 gusting 11 28.9
2019-Aug-19 12:36 069 6 gusting 11 28.9
2019-Aug-19 12:30 105 1 gusting 6 28.9
2019-Aug-19 12:24 112 3 gusting 5 28.9
2019-Aug-19 12:18 114 28.9
2019-Aug-19 12:12 114 28.9
2019-Aug-19 12:06 133 28.9
2019-Aug-19 12:00 132 28.9
2019-Aug-19 11:54 133 28.9
2019-Aug-19 11:48 132 28.9
2019-Aug-19 11:42 132 28.9
2019-Aug-19 11:36 133 28.9
2019-Aug-19 11:30 133 2 gusting 3 28.9
2019-Aug-19 11:24 133 1 gusting 3 28.9
2019-Aug-19 11:18 106 3 gusting 4 28.9
2019-Aug-19 11:12 108 1 gusting 4 28.9
2019-Aug-19 11:06 113 1 gusting 2 28.9
2019-Aug-19 11:00 130 3 gusting 3 28.9